Time;durP1;ratioP1;P1;durP2;ratioP2;P2;SDS_P1;SDS_P2;PMS_P1;PMS_P2;Temp;Humidity;BMP_temperature;BMP_pressure;BME280_temperature;BME280_humidity;BME280_pressure;Samples;Min_cycle;Max_cycle;Signal;HPM_P1;HPM_P2
2023/09/29 00:00:31;;;;;;;19.83;4.50;;;;;;;;;;4897714;29;20047;-74
2023/09/29 00:02:57;;;;;;;19.60;5.60;;;;;;;;;;4878314;29;20037;-75
2023/09/29 00:05:23;;;;;;;19.35;5.00;;;;;;;;;;4890325;29;20062;-75
2023/09/29 00:07:51;;;;;;;21.23;5.00;;;;;;;;;;4895104;29;20048;-75
2023/09/29 00:10:20;;;;;;;19.85;5.15;;;;;;;;;;4894075;29;20036;-75
2023/09/29 00:12:46;;;;;;;20.27;4.47;;;;;;;;;;4895990;29;20072;-75
2023/09/29 00:15:13;;;;;;;23.73;5.32;;;;;;;;;;4895474;29;20145;-75
2023/09/29 00:17:39;;;;;;;17.65;3.90;;;;;;;;;;4896419;29;20044;-75
2023/09/29 00:20:17;;;;;;;21.45;3.92;;;;;;;;;;4894428;29;20033;-74
2023/09/29 00:22:43;;;;;;;19.95;5.07;;;;;;;;;;4871178;29;20032;-74
2023/09/29 00:25:10;;;;;;;19.67;5.35;;;;;;;;;;4895873;29;20048;-74
2023/09/29 00:27:36;;;;;;;21.55;4.00;;;;;;;;;;4881019;29;20072;-75
2023/09/29 00:30:05;;;;;;;19.67;4.25;;;;;;;;;;4876732;29;20048;-75
2023/09/29 00:32:31;;;;;;;16.63;3.83;;;;;;;;;;4891649;29;20060;-74
2023/09/29 00:34:58;;;;;;;16.02;3.95;;;;;;;;;;4895561;29;20435;-76
2023/09/29 00:37:25;;;;;;;21.08;4.78;;;;;;;;;;4894694;29;20119;-75
2023/09/29 00:39:52;;;;;;;18.00;3.95;;;;;;;;;;4896820;29;20040;-75
2023/09/29 00:42:19;;;;;;;19.10;3.45;;;;;;;;;;4891312;29;20136;-75
2023/09/29 00:44:45;;;;;;;17.27;3.95;;;;;;;;;;4893808;29;20356;-75
2023/09/29 00:47:11;;;;;;;18.55;4.65;;;;;;;;;;4894264;29;20088;-74
2023/09/29 00:49:37;;;;;;;21.98;4.07;;;;;;;;;;4896368;29;20041;-75
2023/09/29 00:52:04;;;;;;;25.88;4.43;;;;;;;;;;4892420;29;20447;-75
2023/09/29 00:54:32;;;;;;;23.02;4.30;;;;;;;;;;4895312;29;20047;-75
2023/09/29 00:57:00;;;;;;;18.48;3.75;;;;;;;;;;4895419;29;20091;-75
2023/09/29 00:59:31;;;;;;;14.23;3.72;;;;;;;;;;4895467;29;20039;-75
2023/09/29 01:01:57;;;;;;;19.80;3.92;;;;;;;;;;4892946;29;20049;-75
2023/09/29 01:04:23;;;;;;;26.88;4.80;;;;;;;;;;4895334;29;20025;-75
2023/09/29 01:06:50;;;;;;;17.20;3.72;;;;;;;;;;4889463;29;20104;-75
2023/09/29 01:09:16;;;;;;;17.77;3.80;;;;;;;;;;4893044;29;20041;-75
2023/09/29 01:11:45;;;;;;;21.02;4.20;;;;;;;;;;4895463;29;20060;-75
2023/09/29 01:14:12;;;;;;;15.82;3.35;;;;;;;;;;4892564;29;20060;-75
2023/09/29 01:16:39;;;;;;;19.30;4.40;;;;;;;;;;4892239;29;20165;-75
2023/09/29 01:19:11;;;;;;;13.90;3.92;;;;;;;;;;4883635;29;20028;-75
2023/09/29 01:21:37;;;;;;;27.45;4.75;;;;;;;;;;4893758;29;20394;-75
2023/09/29 01:24:05;;;;;;;20.23;3.95;;;;;;;;;;4895462;29;20035;-75
2023/09/29 01:26:32;;;;;;;17.80;3.90;;;;;;;;;;4889551;29;21089;-75
2023/09/29 01:28:58;;;;;;;22.67;4.78;;;;;;;;;;4888929;29;20036;-75
2023/09/29 01:31:24;;;;;;;20.42;4.78;;;;;;;;;;4894744;29;20033;-76
2023/09/29 01:33:50;;;;;;;20.45;5.25;;;;;;;;;;4894933;29;20036;-75
2023/09/29 01:36:16;;;;;;;16.48;3.83;;;;;;;;;;4902635;29;20044;-75
2023/09/29 01:38:43;;;;;;;18.48;5.05;;;;;;;;;;4892069;29;20040;-75
2023/09/29 01:41:10;;;;;;;17.13;4.18;;;;;;;;;;4894907;29;20050;-75
2023/09/29 01:43:36;;;;;;;19.98;4.05;;;;;;;;;;4893505;29;20060;-75
2023/09/29 01:46:02;;;;;;;24.00;4.45;;;;;;;;;;4869633;29;20127;-75
2023/09/29 01:48:28;;;;;;;25.27;4.65;;;;;;;;;;4892271;29;20041;-75
2023/09/29 01:50:54;;;;;;;19.90;5.03;;;;;;;;;;4892832;29;20088;-74
2023/09/29 01:53:21;;;;;;;19.95;5.68;;;;;;;;;;4892515;29;20510;-74
2023/09/29 01:55:47;;;;;;;13.13;3.60;;;;;;;;;;4865297;29;20474;-76
2023/09/29 01:58:13;;;;;;;17.50;3.70;;;;;;;;;;4868431;29;20025;-76
2023/09/29 02:00:39;;;;;;;20.85;3.45;;;;;;;;;;4888176;29;20080;-75
2023/09/29 02:03:07;;;;;;;17.58;3.97;;;;;;;;;;4891476;29;20048;-76
2023/09/29 02:05:33;;;;;;;20.63;4.07;;;;;;;;;;4894138;29;20558;-78
2023/09/29 02:08:02;;;;;;;22.77;4.88;;;;;;;;;;4893562;29;20404;-73
2023/09/29 02:10:28;;;;;;;23.70;6.30;;;;;;;;;;4889412;29;20687;-72
2023/09/29 02:12:55;;;;;;;22.80;5.95;;;;;;;;;;4884499;29;20041;-73
2023/09/29 02:15:21;;;;;;;15.48;4.20;;;;;;;;;;4869678;29;20506;-77
2023/09/29 02:17:50;;;;;;;16.13;3.80;;;;;;;;;;4891946;29;20036;-79
2023/09/29 02:20:18;;;;;;;17.88;4.00;;;;;;;;;;4892361;29;20096;-77
2023/09/29 02:22:44;;;;;;;21.40;4.25;;;;;;;;;;4895366;29;20037;-77
2023/09/29 02:25:11;;;;;;;19.48;4.28;;;;;;;;;;4889367;29;20131;-77
2023/09/29 02:27:38;;;;;;;16.23;5.03;;;;;;;;;;4893903;29;20056;-76
2023/09/29 02:30:04;;;;;;;24.55;5.18;;;;;;;;;;4891581;29;20127;-75
2023/09/29 02:32:30;;;;;;;25.67;5.40;;;;;;;;;;4894983;29;20046;-75
2023/09/29 02:34:56;;;;;;;16.63;3.60;;;;;;;;;;4887549;29;20037;-74
2023/09/29 02:37:22;;;;;;;17.33;3.78;;;;;;;;;;4895920;29;20047;-76
2023/09/29 02:39:48;;;;;;;17.77;4.38;;;;;;;;;;4895722;29;20037;-75
2023/09/29 02:42:14;;;;;;;20.98;3.60;;;;;;;;;;4849036;29;1166888;-76
2023/09/29 02:44:40;;;;;;;18.73;4.35;;;;;;;;;;4889860;29;20040;-75
2023/09/29 02:47:06;;;;;;;13.48;2.97;;;;;;;;;;4897407;29;20056;-75
2023/09/29 02:49:33;;;;;;;14.40;4.70;;;;;;;;;;4885715;29;20032;-75
2023/09/29 02:51:59;;;;;;;13.63;3.13;;;;;;;;;;4892724;29;20546;-75
2023/09/29 02:54:25;;;;;;;16.45;3.85;;;;;;;;;;4892414;29;20527;-75
2023/09/29 02:56:52;;;;;;;14.52;4.35;;;;;;;;;;4878899;29;20059;-75
2023/09/29 02:59:20;;;;;;;18.42;3.83;;;;;;;;;;4876583;29;20044;-76
2023/09/29 03:01:46;;;;;;;25.50;10.13;;;;;;;;;;4878217;29;20037;-80
2023/09/29 03:04:12;;;;;;;32.22;10.85;;;;;;;;;;4880947;29;20097;-82
2023/09/29 03:06:38;;;;;;;14.48;3.53;;;;;;;;;;4890721;29;20037;-80
2023/09/29 03:09:04;;;;;;;14.82;3.08;;;;;;;;;;4879509;29;20555;-76
2023/09/29 03:11:30;;;;;;;16.25;3.55;;;;;;;;;;4898009;29;20474;-76
2023/09/29 03:13:56;;;;;;;19.77;3.53;;;;;;;;;;4884762;29;20040;-76
2023/09/29 03:16:24;;;;;;;18.05;3.08;;;;;;;;;;4886204;29;20025;-76
2023/09/29 03:18:50;;;;;;;16.92;4.32;;;;;;;;;;4896625;29;20096;-76
2023/09/29 03:21:16;;;;;;;18.67;3.78;;;;;;;;;;4894155;29;20359;-75
2023/09/29 03:23:43;;;;;;;15.40;3.35;;;;;;;;;;4895749;29;20092;-75
2023/09/29 03:26:13;;;;;;;20.85;4.22;;;;;;;;;;4888904;29;20041;-75
2023/09/29 03:28:39;;;;;;;17.15;3.17;;;;;;;;;;4892866;29;20029;-76
2023/09/29 03:31:08;;;;;;;18.20;3.15;;;;;;;;;;4896360;29;20036;-76
2023/09/29 03:33:35;;;;;;;19.20;3.35;;;;;;;;;;4893620;29;20395;-76
2023/09/29 03:36:03;;;;;;;19.30;3.78;;;;;;;;;;4893462;29;20037;-76
2023/09/29 03:38:29;;;;;;;17.42;4.35;;;;;;;;;;4896141;29;20028;-76
2023/09/29 03:40:56;;;;;;;16.20;3.65;;;;;;;;;;4896283;29;20036;-76
2023/09/29 03:43:25;;;;;;;13.02;3.47;;;;;;;;;;4897944;29;20534;-76
2023/09/29 03:45:53;;;;;;;15.57;3.85;;;;;;;;;;4896396;29;20037;-76
2023/09/29 03:48:20;;;;;;;15.10;3.30;;;;;;;;;;4895993;29;20518;-76
2023/09/29 03:50:49;;;;;;;24.00;5.65;;;;;;;;;;4875842;29;20052;-76
2023/09/29 03:53:16;;;;;;;12.27;3.15;;;;;;;;;;4878775;29;20029;-76
2023/09/29 03:55:42;;;;;;;13.02;3.70;;;;;;;;;;4883846;29;20605;-76
2023/09/29 03:58:08;;;;;;;20.17;3.80;;;;;;;;;;4881068;29;20036;-76
2023/09/29 04:00:34;;;;;;;14.88;3.80;;;;;;;;;;4893179;29;20059;-76
2023/09/29 04:03:00;;;;;;;19.58;3.67;;;;;;;;;;4896070;29;20036;-77
2023/09/29 04:05:26;;;;;;;18.33;3.35;;;;;;;;;;4896413;29;20032;-76
2023/09/29 04:07:52;;;;;;;16.17;3.78;;;;;;;;;;4864948;29;20037;-76
2023/09/29 04:10:20;;;;;;;19.48;3.83;;;;;;;;;;4883200;29;20561;-76
2023/09/29 04:12:47;;;;;;;16.23;3.95;;;;;;;;;;4886700;29;20048;-76
2023/09/29 04:15:13;;;;;;;13.98;3.13;;;;;;;;;;4893756;29;20037;-76
2023/09/29 04:17:39;;;;;;;20.42;4.03;;;;;;;;;;4896355;29;20040;-76
2023/09/29 04:20:06;;;;;;;17.27;3.38;;;;;;;;;;4896700;29;20025;-76
2023/09/29 04:22:32;;;;;;;14.20;4.15;;;;;;;;;;4887561;29;20479;-76
2023/09/29 04:24:58;;;;;;;17.45;3.60;;;;;;;;;;4893239;29;20502;-77
2023/09/29 04:27:25;;;;;;;11.70;3.50;;;;;;;;;;4895060;29;20036;-76
2023/09/29 04:29:54;;;;;;;16.20;4.07;;;;;;;;;;4879559;29;20028;-76
2023/09/29 04:32:20;;;;;;;17.58;3.75;;;;;;;;;;4893490;29;20505;-76
2023/09/29 04:34:46;;;;;;;18.40;3.75;;;;;;;;;;4883372;29;20045;-76
2023/09/29 04:37:13;;;;;;;16.23;3.72;;;;;;;;;;4891238;29;20040;-76
2023/09/29 04:39:39;;;;;;;23.58;4.30;;;;;;;;;;4893883;29;20104;-76
2023/09/29 04:42:06;;;;;;;14.65;3.97;;;;;;;;;;4893060;29;20487;-76
2023/09/29 04:44:32;;;;;;;14.88;4.40;;;;;;;;;;4883309;29;20032;-76
2023/09/29 04:46:58;;;;;;;16.00;3.55;;;;;;;;;;4894258;29;20064;-75
2023/09/29 04:49:24;;;;;;;12.15;3.63;;;;;;;;;;4892297;29;20047;-76
2023/09/29 04:51:51;;;;;;;14.82;3.60;;;;;;;;;;4892827;29;20045;-76
2023/09/29 04:54:16;;;;;;;12.77;3.95;;;;;;;;;;4895854;29;20036;-76
2023/09/29 04:56:43;;;;;;;18.33;4.47;;;;;;;;;;4893431;29;20064;-76
2023/09/29 04:59:09;;;;;;;9.52;2.63;;;;;;;;;;4896261;29;20051;-76
2023/09/29 05:01:38;;;;;;;16.00;4.20;;;;;;;;;;4894197;29;20471;-76
2023/09/29 05:04:04;;;;;;;14.05;3.22;;;;;;;;;;4894471;29;20033;-75
2023/09/29 05:06:31;;;;;;;13.10;3.20;;;;;;;;;;4876189;29;20048;-75
2023/09/29 05:08:57;;;;;;;11.73;4.03;;;;;;;;;;4892509;29;20055;-76
2023/09/29 05:11:24;;;;;;;14.63;3.30;;;;;;;;;;4878765;29;20041;-76
2023/09/29 05:13:51;;;;;;;16.15;3.80;;;;;;;;;;4891371;29;20045;-77
2023/09/29 05:16:17;;;;;;;16.75;3.72;;;;;;;;;;4892718;29;20057;-77
2023/09/29 05:18:44;;;;;;;20.40;4.30;;;;;;;;;;4888599;29;20067;-80
2023/09/29 05:21:10;;;;;;;13.80;3.90;;;;;;;;;;4893080;29;20489;-79
2023/09/29 05:23:37;;;;;;;13.77;4.32;;;;;;;;;;4882817;29;20033;-79
2023/09/29 05:26:05;;;;;;;17.98;4.43;;;;;;;;;;4888527;29;20036;-79
2023/09/29 05:28:31;;;;;;;20.70;5.97;;;;;;;;;;4867802;29;20036;-78
2023/09/29 05:30:57;;;;;;;15.55;5.50;;;;;;;;;;4884643;29;20056;-79
2023/09/29 05:33:23;;;;;;;19.73;3.80;;;;;;;;;;4894482;29;20471;-78
2023/09/29 05:35:50;;;;;;;18.38;4.63;;;;;;;;;;4895595;29;20112;-81
2023/09/29 05:38:16;;;;;;;16.75;4.78;;;;;;;;;;4889762;29;20032;-84
2023/09/29 05:40:43;;;;;;;15.35;4.82;;;;;;;;;;4893551;29;20522;-90
2023/09/29 05:43:10;;;;;;;24.98;9.32;;;;;;;;;;4899505;29;20064;-89
2023/09/29 05:45:42;;;;;;;19.48;4.05;;;;;;;;;;4899835;29;20115;-88
2023/09/29 05:48:09;;;;;;;12.50;3.63;;;;;;;;;;4881069;29;20063;-78
2023/09/29 05:50:35;;;;;;;25.48;4.35;;;;;;;;;;4888748;29;20046;-77
2023/09/29 05:53:02;;;;;;;12.38;4.30;;;;;;;;;;4879814;29;20115;-78
2023/09/29 05:55:28;;;;;;;12.88;3.70;;;;;;;;;;4897754;29;20041;-77
2023/09/29 05:57:54;;;;;;;14.07;3.97;;;;;;;;;;4890050;29;20044;-77
2023/09/29 06:00:20;;;;;;;10.93;4.70;;;;;;;;;;4870384;29;20041;-79
2023/09/29 06:02:48;;;;;;;14.60;4.65;;;;;;;;;;4889636;29;20036;-81
2023/09/29 06:05:14;;;;;;;19.23;4.43;;;;;;;;;;4880606;29;20033;-79
2023/09/29 06:07:41;;;;;;;15.45;4.88;;;;;;;;;;4894022;29;20112;-81
2023/09/29 06:10:07;;;;;;;15.57;4.45;;;;;;;;;;4874196;29;20037;-75
2023/09/29 06:12:34;;;;;;;15.63;4.53;;;;;;;;;;4895272;29;20041;-76
2023/09/29 06:15:00;;;;;;;20.83;4.28;;;;;;;;;;4895196;29;20043;-76
2023/09/29 06:17:26;;;;;;;14.35;4.43;;;;;;;;;;4882092;29;20044;-77
2023/09/29 06:19:52;;;;;;;13.82;4.32;;;;;;;;;;4895384;29;20029;-79
2023/09/29 06:22:19;;;;;;;12.55;5.25;;;;;;;;;;4895549;29;20032;-77
2023/09/29 06:24:45;;;;;;;12.55;4.13;;;;;;;;;;4887121;29;20092;-77
2023/09/29 06:27:12;;;;;;;17.15;4.80;;;;;;;;;;4872913;29;20033;-77
2023/09/29 06:29:41;;;;;;;21.67;6.43;;;;;;;;;;4893941;29;20092;-76
2023/09/29 06:32:11;;;;;;;21.23;4.13;;;;;;;;;;4895160;29;20072;-78
2023/09/29 06:34:37;;;;;;;13.27;3.85;;;;;;;;;;4896741;29;20063;-77
2023/09/29 06:37:03;;;;;;;14.38;4.50;;;;;;;;;;4895883;29;20535;-76
2023/09/29 06:39:30;;;;;;;13.10;4.00;;;;;;;;;;4872936;29;20049;-78
2023/09/29 06:41:56;;;;;;;14.35;4.35;;;;;;;;;;4865582;29;20141;-78
2023/09/29 06:44:23;;;;;;;11.77;4.03;;;;;;;;;;4888707;29;20067;-77
2023/09/29 06:46:49;;;;;;;13.90;3.90;;;;;;;;;;4897328;29;20048;-77
2023/09/29 06:49:15;;;;;;;16.73;5.05;;;;;;;;;;4894928;29;20066;-75
2023/09/29 06:51:41;;;;;;;22.08;10.60;;;;;;;;;;4896806;29;20159;-76
2023/09/29 06:54:07;;;;;;;15.30;4.18;;;;;;;;;;4895050;29;21610;-77
2023/09/29 06:56:33;;;;;;;15.02;4.30;;;;;;;;;;4876148;29;20044;-77
2023/09/29 06:58:59;;;;;;;16.23;3.67;;;;;;;;;;4904710;29;20036;-77
2023/09/29 07:01:27;;;;;;;18.20;4.15;;;;;;;;;;4892888;29;20111;-77
2023/09/29 07:03:53;;;;;;;15.25;3.83;;;;;;;;;;4894483;29;20120;-76
2023/09/29 07:06:23;;;;;;;15.02;4.38;;;;;;;;;;4890834;29;20782;-77
2023/09/29 07:08:49;;;;;;;14.75;3.92;;;;;;;;;;4886478;29;20099;-77
2023/09/29 07:11:15;;;;;;;12.88;4.25;;;;;;;;;;4892500;29;20152;-77
2023/09/29 07:13:41;;;;;;;10.70;3.70;;;;;;;;;;4878902;29;20131;-77
2023/09/29 07:16:07;;;;;;;11.15;3.50;;;;;;;;;;4890350;29;20056;-78
2023/09/29 07:18:33;;;;;;;15.00;4.72;;;;;;;;;;4894880;29;20028;-77
2023/09/29 07:20:59;;;;;;;12.00;4.00;;;;;;;;;;4890721;29;20072;-78
2023/09/29 07:23:25;;;;;;;15.40;4.47;;;;;;;;;;4892665;29;20122;-80
2023/09/29 07:25:55;;;;;;;16.23;4.68;;;;;;;;;;4885308;29;20021;-78
2023/09/29 07:28:21;;;;;;;12.02;3.67;;;;;;;;;;4890445;29;20033;-77
2023/09/29 07:30:47;;;;;;;11.30;3.75;;;;;;;;;;4891876;29;20021;-79
2023/09/29 07:33:13;;;;;;;12.50;3.85;;;;;;;;;;4892784;29;20150;-78
2023/09/29 07:35:40;;;;;;;8.60;3.80;;;;;;;;;;4883401;29;20104;-78
2023/09/29 07:38:06;;;;;;;10.45;4.05;;;;;;;;;;4892145;29;20056;-76
2023/09/29 07:40:34;;;;;;;9.65;3.60;;;;;;;;;;4890978;29;20037;-76
2023/09/29 07:43:00;;;;;;;11.48;4.10;;;;;;;;;;4896165;29;20049;-77
2023/09/29 07:45:26;;;;;;;12.18;3.40;;;;;;;;;;4895039;29;20091;-77
2023/09/29 07:47:52;;;;;;;7.18;3.10;;;;;;;;;;4892808;29;20045;-78
2023/09/29 07:50:19;;;;;;;12.68;4.38;;;;;;;;;;4893077;29;20502;-77
2023/09/29 07:52:45;;;;;;;7.95;3.67;;;;;;;;;;4889315;29;20047;-79
2023/09/29 07:55:11;;;;;;;7.90;3.35;;;;;;;;;;4892682;29;20025;-78
2023/09/29 07:57:37;;;;;;;8.75;3.50;;;;;;;;;;4891177;29;20103;-79
2023/09/29 08:00:10;;;;;;;10.23;3.67;;;;;;;;;;4897441;29;20036;-78
2023/09/29 08:02:36;;;;;;;9.27;5.03;;;;;;;;;;4868193;29;20033;-73
2023/09/29 08:05:03;;;;;;;14.15;4.50;;;;;;;;;;4889232;29;20475;-80
2023/09/29 08:07:29;;;;;;;60.35;40.33;;;;;;;;;;4876978;29;20056;-74
2023/09/29 08:09:55;;;;;;;9.32;4.00;;;;;;;;;;4910330;29;20451;-76
2023/09/29 08:12:21;;;;;;;14.02;3.75;;;;;;;;;;4909523;29;20037;-76
2023/09/29 08:14:50;;;;;;;12.57;4.28;;;;;;;;;;4879511;29;20049;-77
2023/09/29 08:17:18;;;;;;;9.32;3.80;;;;;;;;;;4875094;29;20037;-76
2023/09/29 08:19:44;;;;;;;9.85;4.50;;;;;;;;;;4878003;29;20025;-76
2023/09/29 08:22:10;;;;;;;10.20;4.43;;;;;;;;;;4894673;29;20399;-76
2023/09/29 08:24:36;;;;;;;10.57;4.35;;;;;;;;;;4892268;29;20047;-76
2023/09/29 08:27:02;;;;;;;9.68;3.90;;;;;;;;;;4897151;29;20033;-76
2023/09/29 08:29:28;;;;;;;16.83;5.03;;;;;;;;;;4893393;29;20073;-77
2023/09/29 08:31:56;;;;;;;11.05;4.70;;;;;;;;;;4881102;29;20744;-77
2023/09/29 08:34:22;;;;;;;12.15;5.57;;;;;;;;;;4894290;29;20486;-77
2023/09/29 08:36:48;;;;;;;12.27;5.50;;;;;;;;;;4896154;29;20033;-78
2023/09/29 08:39:14;;;;;;;17.30;5.13;;;;;;;;;;4895940;29;20044;-76
2023/09/29 08:41:48;;;;;;;15.20;6.40;;;;;;;;;;4876566;29;20044;-77
2023/09/29 08:44:19;;;;;;;17.95;7.40;;;;;;;;;;4896135;29;20067;-78
2023/09/29 08:46:47;;;;;;;13.40;6.00;;;;;;;;;;4883452;29;20021;-77
2023/09/29 08:49:15;;;;;;;16.15;6.32;;;;;;;;;;4893186;29;20037;-76
2023/09/29 08:51:46;;;;;;;14.10;6.82;;;;;;;;;;4894603;29;20516;-77
2023/09/29 08:54:17;;;;;;;17.35;6.97;;;;;;;;;;4896095;29;20044;-76
2023/09/29 08:56:43;;;;;;;15.93;6.45;;;;;;;;;;4897168;29;20032;-76
2023/09/29 08:59:09;;;;;;;13.57;6.30;;;;;;;;;;4892049;29;20039;-76
2023/09/29 09:01:35;;;;;;;22.15;7.28;;;;;;;;;;4894023;29;20036;-78
2023/09/29 09:04:01;;;;;;;14.57;6.80;;;;;;;;;;4893117;29;20359;-78
2023/09/29 09:06:28;;;;;;;17.33;7.28;;;;;;;;;;4907091;29;20037;-76
2023/09/29 09:08:55;;;;;;;16.95;6.75;;;;;;;;;;4894724;29;20036;-77
2023/09/29 09:11:21;;;;;;;17.40;6.22;;;;;;;;;;4895529;29;20060;-76
2023/09/29 09:13:58;;;;;;;12.98;6.70;;;;;;;;;;4894826;29;20036;-78
2023/09/29 09:16:25;;;;;;;15.25;5.50;;;;;;;;;;4894798;29;20041;-76
2023/09/29 09:18:53;;;;;;;17.38;7.78;;;;;;;;;;4895472;29;20032;-78
2023/09/29 09:21:20;;;;;;;13.23;6.43;;;;;;;;;;4856761;29;20091;-77
2023/09/29 09:23:46;;;;;;;15.10;7.95;;;;;;;;;;4883882;29;20033;-74
2023/09/29 09:26:18;;;;;;;15.02;6.97;;;;;;;;;;4889305;29;20021;-76
2023/09/29 09:28:44;;;;;;;16.20;4.60;;;;;;;;;;4886917;29;20029;-74
2023/09/29 09:31:11;;;;;;;8.82;4.20;;;;;;;;;;4894571;29;20028;-73
2023/09/29 09:33:37;;;;;;;12.40;5.22;;;;;;;;;;4878926;29;20028;-75
2023/09/29 09:36:09;;;;;;;9.50;3.78;;;;;;;;;;4892792;29;20044;-82
2023/09/29 09:38:35;;;;;;;9.43;3.90;;;;;;;;;;4892970;29;20028;-78
2023/09/29 09:41:01;;;;;;;10.77;3.47;;;;;;;;;;4890245;29;20025;-81
2023/09/29 09:43:29;;;;;;;12.70;3.10;;;;;;;;;;4893311;29;20491;-79
2023/09/29 09:46:03;;;;;;;11.75;3.88;;;;;;;;;;4892047;29;20044;-80
2023/09/29 09:48:33;;;;;;;9.32;2.63;;;;;;;;;;4885903;29;20080;-79
2023/09/29 09:51:02;;;;;;;6.35;3.00;;;;;;;;;;4883662;29;20033;-80
2023/09/29 09:53:31;;;;;;;7.60;2.75;;;;;;;;;;4886069;29;20089;-82
2023/09/29 09:56:01;;;;;;;6.97;2.35;;;;;;;;;;4890751;29;20041;-80
2023/09/29 09:58:28;;;;;;;9.15;2.78;;;;;;;;;;4891584;29;20033;-80
2023/09/29 10:00:55;;;;;;;6.15;2.40;;;;;;;;;;4886946;29;20029;-81
2023/09/29 10:03:22;;;;;;;6.80;3.17;;;;;;;;;;4890961;29;20095;-80
2023/09/29 10:05:52;;;;;;;10.25;2.40;;;;;;;;;;4892416;29;20119;-82
2023/09/29 10:08:30;;;;;;;6.00;2.33;;;;;;;;;;4894711;29;20036;-82
2023/09/29 10:11:13;;;;;;;27.88;15.48;;;;;;;;;;4875711;29;20029;-83
2023/09/29 10:13:48;;;;;;;;;;;20.10;99.90;;;;;;4892752;29;20035;-81
2023/09/29 10:16:21;;;;;;;9.40;4.57;;;;;;;;;;4891828;29;19919;-77
2023/09/29 10:19:00;;;;;;;10.15;2.50;;;;;;;;;;4893335;29;20464;-77
2023/09/29 10:21:30;;;;;;;4.65;2.42;;;;;;;;;;4891393;29;20537;-81
2023/09/29 10:24:00;;;;;;;6.93;2.55;;;;;;;;;;4887088;29;20047;-78
2023/09/29 10:26:26;;;;;;;9.50;3.40;;;;;;;;;;4886720;29;20028;-79
2023/09/29 10:29:00;;;;;;;8.13;2.92;;;;;;;;;;4894058;29;20032;-81
2023/09/29 10:31:28;;;;;;;7.65;3.33;;;;;;;;;;4892159;29;20079;-81
2023/09/29 10:33:57;;;;;;;9.43;2.78;;;;;;;;;;4893191;29;20410;-81
2023/09/29 10:36:24;;;;;;;8.80;3.58;;;;;;;;;;4889876;29;20033;-81
2023/09/29 10:38:51;;;;;;;7.60;2.85;;;;;;;;;;4891342;29;20064;-80
2023/09/29 10:41:18;;;;;;;7.82;2.88;;;;;;;;;;4898297;29;20076;-84
2023/09/29 10:43:49;;;;;;;10.98;3.53;;;;;;;;;;4895821;29;20388;-81
2023/09/29 10:46:20;;;;;;;12.10;5.60;;;;;;;;;;4893497;29;20080;-85
2023/09/29 10:48:47;;;;;;;16.17;6.07;;;;;;;;;;4896481;29;20080;-86
2023/09/29 10:51:27;;;;;;;7.82;3.35;;;;;;;;;;4889701;29;20055;-81
2023/09/29 10:53:53;;;;;;;12.60;4.78;;;;;;;;;;4881737;29;20045;-79
2023/09/29 10:56:24;;;;;;;8.75;3.50;;;;;;;;;;4893895;29;20040;-79
2023/09/29 10:58:52;;;;;;;13.43;4.07;;;;;;;;;;4893879;29;20041;-79
2023/09/29 11:01:21;;;;;;;12.32;4.88;;;;;;;;;;4890077;29;20057;-79
2023/09/29 11:03:50;;;;;;;11.70;3.83;;;;;;;;;;4887001;29;20049;-79
2023/09/29 11:06:18;;;;;;;9.25;3.92;;;;;;;;;;4897959;29;20578;-78
2023/09/29 11:08:52;;;;;;;9.13;3.90;;;;;;;;;;4888873;29;20519;-81
2023/09/29 11:11:18;;;;;;;7.13;3.40;;;;;;;;;;4897890;29;20068;-79
2023/09/29 11:13:44;;;;;;;12.20;4.00;;;;;;;;;;4895303;29;20075;-78
2023/09/29 11:16:17;;;;;;;7.50;3.70;;;;;;;;;;4890243;29;20088;-79
2023/09/29 11:18:47;;;;;;;9.07;3.83;;;;;;;;;;4884598;29;20029;-78
2023/09/29 11:21:13;;;;;;;8.98;4.13;;;;;;;;;;4887335;29;20037;-80
2023/09/29 11:23:39;;;;;;;6.18;3.28;;;;;;;;;;4865652;29;20037;-78
2023/09/29 11:26:07;;;;;;;9.38;3.53;;;;;;;;;;4895389;29;20108;-78
2023/09/29 11:28:39;;;;;;;8.60;3.58;;;;;;;;;;4892183;29;20383;-79
2023/09/29 11:31:06;;;;;;;10.15;4.38;;;;;;;;;;4897152;29;20032;-79
2023/09/29 11:33:32;;;;;;;11.05;4.40;;;;;;;;;;4880041;29;20033;-79
2023/09/29 11:35:58;;;;;;;10.38;3.83;;;;;;;;;;4891259;29;20037;-79
2023/09/29 11:38:24;;;;;;;9.25;4.25;;;;;;;;;;4891899;29;20032;-79
2023/09/29 11:40:51;;;;;;;8.10;3.17;;;;;;;;;;4881900;29;20049;-79
2023/09/29 11:43:18;;;;;;;11.00;3.88;;;;;;;;;;4887413;29;20141;-79
2023/09/29 11:45:44;;;;;;;10.25;4.10;;;;;;;;;;4888380;29;20087;-78
2023/09/29 11:48:10;;;;;;;10.63;4.15;;;;;;;;;;4880444;29;20033;-79
2023/09/29 11:50:37;;;;;;;10.52;4.00;;;;;;;;;;4894305;29;20043;-79
2023/09/29 11:53:06;;;;;;;10.45;4.22;;;;;;;;;;4897484;29;20028;-80
2023/09/29 11:55:33;;;;;;;10.95;4.38;;;;;;;;;;4879626;29;20040;-79
2023/09/29 11:57:59;;;;;;;6.50;4.43;;;;;;;;;;4891428;29;20101;-80
2023/09/29 12:00:25;;;;;;;4.25;2.80;;;;;;;;;;4888344;29;20084;-81
2023/09/29 12:02:51;;;;;;;6.65;1.73;;;;;;;;;;4886029;29;20043;-78
2023/09/29 12:05:18;;;;;;;4.53;1.15;;;;;;;;;;4893828;29;20069;-79
2023/09/29 12:07:44;;;;;;;6.05;2.00;;;;;;;;;;4884142;29;20037;-80
2023/09/29 12:10:10;;;;;;;3.25;1.30;;;;;;;;;;4878656;29;20045;-77
2023/09/29 12:12:36;;;;;;;3.78;1.02;;;;;;;;;;4893056;29;20100;-78
2023/09/29 12:15:03;;;;;;;2.85;1.00;;;;;;;;;;4897002;29;20075;-77
2023/09/29 12:17:30;;;;;;;3.50;1.27;;;;;;;;;;4887955;29;20045;-76
2023/09/29 12:19:56;;;;;;;3.80;0.73;;;;;;;;;;4871626;29;20037;-76
2023/09/29 12:22:22;;;;;;;1.23;0.80;;;;;;;;;;4895713;29;20637;-76
2023/09/29 12:24:49;;;;;;;6.00;1.05;;;;;;;;;;4891702;29;20045;-76
2023/09/29 12:27:17;;;;;;;4.03;1.10;;;;;;;;;;4893977;29;20111;-76
2023/09/29 12:29:44;;;;;;;2.80;1.02;;;;;;;;;;4896099;29;20041;-76
2023/09/29 12:32:10;;;;;;;4.15;1.45;;;;;;;;;;4889245;29;20052;-76
2023/09/29 12:34:36;;;;;;;5.35;1.00;;;;;;;;;;4871071;29;20075;-77
2023/09/29 12:37:04;;;;;;;3.10;0.77;;;;;;;;;;4893903;29;20047;-77
2023/09/29 12:39:30;;;;;;;4.90;0.82;;;;;;;;;;4894322;29;20036;-76
2023/09/29 12:41:57;;;;;;;2.97;0.60;;;;;;;;;;4878163;29;20037;-76
2023/09/29 12:44:23;;;;;;;2.70;0.55;;;;;;;;;;4876980;29;20414;-76
2023/09/29 12:46:50;;;;;;;5.07;0.85;;;;;;;;;;4885574;29;20495;-76
2023/09/29 12:49:16;;;;;;;1.98;0.57;;;;;;;;;;4889603;29;20052;-76
2023/09/29 12:51:42;;;;;;;3.38;1.08;;;;;;;;;;4894019;29;20143;-76
2023/09/29 12:54:08;;;;;;;1.58;0.50;;;;;;;;;;4881800;29;20049;-76
2023/09/29 12:56:35;;;;;;;4.85;1.25;;;;;;;;;;4896495;29;20084;-77
2023/09/29 12:59:01;;;;;;;6.15;3.67;;;;;;;;;;4888032;29;20043;-78
2023/09/29 13:01:27;;;;;;;13.25;5.30;;;;;;;;;;4889880;29;20100;-72
2023/09/29 13:03:53;;;;;;;7.10;1.60;;;;;;;;;;4876207;29;20037;-72
2023/09/29 13:06:19;;;;;;;7.68;1.17;;;;;;;;;;4889944;29;20036;-74
2023/09/29 13:08:45;;;;;;;4.95;0.93;;;;;;;;;;4885828;29;20037;-73
2023/09/29 13:11:21;;;;;;;5.97;1.00;;;;;;;;;;4884483;29;20509;-73
2023/09/29 13:13:47;;;;;;;5.15;1.20;;;;;;;;;;4877372;29;20069;-80
2023/09/29 13:16:13;;;;;;;5.65;1.00;;;;;;;;;;4881303;29;20421;-77
2023/09/29 13:18:40;;;;;;;5.13;0.82;;;;;;;;;;4891385;29;20463;-77
2023/09/29 13:21:07;;;;;;;6.47;1.40;;;;;;;;;;4885342;29;20033;-77
2023/09/29 13:23:33;;;;;;;2.42;0.75;;;;;;;;;;4891263;29;20048;-77
2023/09/29 13:25:59;;;;;;;5.22;0.98;;;;;;;;;;4895200;29;20033;-77
2023/09/29 13:28:25;;;;;;;5.60;0.80;;;;;;;;;;4881642;29;20040;-77
2023/09/29 13:30:51;;;;;;;4.63;1.33;;;;;;;;;;4891642;29;20136;-77
2023/09/29 13:33:18;;;;;;;4.60;1.17;;;;;;;;;;4887029;29;20041;-77
2023/09/29 13:35:44;;;;;;;6.97;1.17;;;;;;;;;;4889833;29;20123;-77
2023/09/29 13:38:12;;;;;;;10.32;1.48;;;;;;;;;;4894814;29;20044;-77
2023/09/29 13:40:38;;;;;;;5.45;1.85;;;;;;;;;;4892242;29;20055;-77
2023/09/29 13:43:04;;;;;;;7.85;1.52;;;;;;;;;;4895134;29;20057;-77
2023/09/29 13:45:30;;;;;;;10.45;3.60;;;;;;;;;;4888392;29;20108;-79
2023/09/29 13:47:58;;;;;;;7.82;2.17;;;;;;;;;;4895938;29;20047;-77
2023/09/29 13:50:24;;;;;;;7.03;2.15;;;;;;;;;;4893127;29;20060;-87
2023/09/29 13:52:50;;;;;;;8.88;1.95;;;;;;;;;;4877581;29;20041;-78
2023/09/29 13:55:16;;;;;;;7.45;1.80;;;;;;;;;;4891159;29;20112;-76
2023/09/29 13:57:42;;;;;;;5.45;1.63;;;;;;;;;;4890856;29;20033;-76
2023/09/29 14:00:09;;;;;;;7.93;1.70;;;;;;;;;;4870840;29;20029;-77
2023/09/29 14:02:35;;;;;;;12.15;2.03;;;;;;;;;;4886025;29;20037;-76
2023/09/29 14:05:02;;;;;;;13.35;2.33;;;;;;;;;;4896652;29;20497;-76
2023/09/29 14:07:28;;;;;;;7.72;1.63;;;;;;;;;;4897982;29;20029;-76
2023/09/29 14:09:54;;;;;;;6.68;2.15;;;;;;;;;;4893952;29;20043;-77
2023/09/29 14:12:20;;;;;;;4.35;1.50;;;;;;;;;;4897354;29;20040;-76
2023/09/29 14:14:47;;;;;;;8.52;2.60;;;;;;;;;;4895912;29;20108;-76
2023/09/29 14:17:13;;;;;;;7.53;1.95;;;;;;;;;;4891130;29;20507;-76
2023/09/29 14:19:39;;;;;;;10.20;2.17;;;;;;;;;;4879548;29;20064;-72
2023/09/29 14:22:05;;;;;;;14.18;3.45;;;;;;;;;;4897001;29;20475;-77
2023/09/29 14:24:34;;;;;;;13.93;4.07;;;;;;;;;;4882757;29;20691;-77
2023/09/29 14:27:00;;;;;;;8.98;2.78;;;;;;;;;;4898514;29;20510;-77
2023/09/29 14:29:26;;;;;;;9.32;2.45;;;;;;;;;;4898449;29;20036;-78
2023/09/29 14:31:52;;;;;;;11.68;2.55;;;;;;;;;;4897595;29;20367;-77